Time;durP1;ratioP1;P1;durP2;ratioP2;P2;SDS_P1;SDS_P2;PMS_P1;PMS_P2;Temp;Humidity;BMP_temperature;BMP_pressure;BME280_temperature;BME280_humidity;BME280_pressure;Samples;Min_cycle;Max_cycle;Signal;HPM_P1;HPM_P2
2021/06/09 18:51:32;;;;;;;4.13;2.08;;;25.30;75.40;;;;;;4294994;27;21203;-79
2021/06/09 18:53:35;;;;;;;5.65;2.28;;;25.50;70.00;;;;;;3725836;27;9538231;-76
2021/06/09 18:57:31;;;;;;;4.85;2.08;;;25.70;69.60;;;;;;4189436;27;20118;-77
2021/06/09 19:01:54;;;;;;;4.80;1.90;;;26.20;67.80;;;;;;4077243;27;20806;-75
2021/06/09 19:04:28;;;;;;;3.05;1.63;;;26.70;66.10;;;;;;4147466;28;20046;-76
2021/06/09 19:08:12;;;;;;;5.55;1.80;;;26.80;64.80;;;;;;4041496;29;20060;-79
2021/06/09 19:10:35;;;;;;;4.68;1.52;;;27.20;64.70;;;;;;4070228;29;20056;-78
2021/06/09 19:12:59;;;;;;;2.55;1.50;;;27.30;63.70;;;;;;4140652;28;20055;-79
2021/06/09 19:18:18;;;;;;;6.43;3.38;;;27.40;62.40;;;;;;4154381;28;20124;-81
2021/06/09 19:20:28;;;;;;;5.47;2.03;;;27.40;62.60;;;;;;4167518;28;20033;-78
2021/06/09 19:22:36;;;;;;;4.68;2.45;;;27.50;62.20;;;;;;4178763;28;20046;-81
2021/06/09 19:24:45;;;;;;;8.45;2.10;;;27.50;62.30;;;;;;4167217;28;20068;-77
2021/06/09 19:27:16;;;;;;;4.57;1.70;;;27.60;62.60;;;;;;4160562;28;20142;-80
2021/06/09 19:29:34;;;;;;;6.05;2.85;;;27.70;62.60;;;;;;4150153;28;20049;-76
2021/06/09 19:31:43;;;;;;;17.60;10.25;;;27.70;63.20;;;;;;4173884;28;20116;-78
2021/06/09 19:33:50;;;;;;;9.65;3.90;;;27.60;63.70;;;;;;4178745;28;20505;-76
2021/06/09 19:36:58;;;;;;;3.40;2.58;;;27.70;64.30;;;;;;4170658;28;20049;-78
2021/06/09 19:43:20;;;;;;;10.48;3.20;;;27.70;64.70;;;;;;4137825;28;20108;-76
2021/06/09 19:45:46;;;;;;;4.05;2.50;;;27.70;64.50;;;;;;4132924;28;20047;-78
2021/06/09 19:48:24;;;;;;;5.10;2.22;;;27.80;64.50;;;;;;4123398;28;20046;-78
2021/06/09 19:50:32;;;;;;;6.77;2.37;;;27.80;64.50;;;;;;4122321;28;20469;-75
2021/06/09 19:52:38;;;;;;;7.32;2.35;;;27.90;64.50;;;;;;4124712;28;20050;-75
2021/06/09 19:55:02;;;;;;;5.82;2.00;;;28.10;64.20;;;;;;4110912;28;20051;-77
2021/06/09 19:57:11;;;;;;;4.55;2.15;;;28.00;63.70;;;;;;4128162;28;20161;-76
2021/06/09 19:59:16;;;;;;;3.35;1.90;;;28.00;63.80;;;;;;4142830;28;20116;-75
2021/06/09 20:01:38;;;;;;;6.32;2.13;;;28.00;63.60;;;;;;4136994;28;20154;-77
2021/06/09 20:03:46;;;;;;;6.20;2.60;;;27.90;63.50;;;;;;4117726;28;20045;-74
2021/06/09 20:09:13;;;;;;;4.90;2.35;;;28.10;64.10;;;;;;4131595;23;20055;-74
2021/06/09 20:11:43;;;;;;;5.72;2.22;;;28.10;63.20;;;;;;4073507;29;20066;-79
2021/06/09 20:14:00;;;;;;;7.25;2.50;;;28.10;62.60;;;;;;4060689;29;20056;-77
2021/06/09 20:16:07;;;;;;;5.78;2.92;;;28.10;62.70;;;;;;4080116;29;20554;-78
2021/06/09 20:18:15;;;;;;;8.10;2.67;;;28.10;63.30;;;;;;4073818;29;20056;-81
2021/06/09 20:20:19;;;;;;;3.60;2.90;;;28.10;62.60;;;;;;4086990;29;20055;-80
2021/06/09 20:22:29;;;;;;;17.10;2.90;;;28.10;62.90;;;;;;4078008;29;20052;-82
2021/06/09 20:24:53;;;;;;;4.95;2.40;;;28.10;62.30;;;;;;4043676;29;20045;-83
2021/06/09 20:29:40;;;;;;;5.15;2.40;;;27.80;64.10;;;;;;4055970;29;20127;-75
2021/06/09 20:31:48;;;;;;;3.67;2.47;;;27.60;67.30;;;;;;4079974;29;20047;-77
2021/06/09 20:33:51;;;;;;;5.30;2.30;;;27.40;68.20;;;;;;4075413;29;20147;-74
2021/06/09 20:35:54;;;;;;;4.63;2.55;;;27.40;69.20;;;;;;4079486;29;20059;-74
2021/06/09 20:37:58;;;;;;;4.47;2.38;;;27.40;69.70;;;;;;4077491;29;20060;-75
2021/06/09 20:40:06;;;;;;;7.83;2.33;;;27.30;70.60;;;;;;4064032;29;20079;-74
2021/06/09 20:42:10;;;;;;;6.00;2.25;;;27.30;71.20;;;;;;4075782;29;20148;-78
2021/06/09 20:45:49;;;;;;;4.57;2.08;;;27.20;71.60;;;;;;4048100;29;20069;-78
2021/06/09 20:55:45;;;;;;;6.28;2.60;;;27.10;74.10;;;;;;4020418;29;20632;-75
2021/06/09 20:57:49;;;;;;;5.18;2.60;;;27.00;74.90;;;;;;4023247;29;20069;-76
2021/06/09 20:59:55;;;;;;;4.80;2.88;;;27.10;75.70;;;;;;4025970;29;20129;-75
2021/06/09 21:03:01;;;;;;;25.83;3.95;;;27.00;75.90;;;;;;4011795;29;20045;-78
2021/06/09 21:05:06;;;;;;;4.63;2.65;;;26.90;77.30;;;;;;4021826;29;20064;-75
2021/06/09 21:07:19;;;;;;;4.30;2.55;;;26.90;77.20;;;;;;4021596;29;20061;-79
2021/06/09 21:09:22;;;;;;;6.30;2.70;;;26.90;77.60;;;;;;4021301;29;20067;-78
2021/06/09 21:11:28;;;;;;;5.25;2.65;;;26.70;79.00;;;;;;4021603;29;20061;-76
2021/06/09 21:13:35;;;;;;;4.97;2.45;;;26.70;79.60;;;;;;4007792;29;20405;-75
2021/06/09 21:15:43;;;;;;;10.15;2.88;;;26.50;80.80;;;;;;4005271;29;20058;-76
2021/06/09 21:17:47;;;;;;;10.70;2.90;;;26.40;82.10;;;;;;4005451;29;20057;-75
2021/06/09 21:20:03;;;;;;;7.28;3.08;;;26.30;82.70;;;;;;4006188;29;20137;-78
2021/06/09 21:22:23;;;;;;;5.43;3.05;;;26.30;83.50;;;;;;3993174;29;20062;-74
